Time;durP1;ratioP1;P1;durP2;ratioP2;P2;SDS_P1;SDS_P2;PMS_P1;PMS_P2;Temp;Humidity;BMP_temperature;BMP_pressure;BME280_temperature;BME280_humidity;BME280_pressure;Samples;Min_cycle;Max_cycle;Signal;HPM_P1;HPM_P2
2023/02/12 00:02:04;;;;;;;;;25.00;20.75;;;;;;;;5038131;28;51138;-58
2023/02/12 00:04:48;;;;;;;;;21.25;20.25;;;;;;;;5036062;28;51538;-57
2023/02/12 00:07:33;;;;;;;;;25.50;20.50;;;;;;;;5037005;28;51166;-57
2023/02/12 00:10:17;;;;;;;;;26.00;24.50;;;;;;;;5038275;28;51365;-57
2023/02/12 00:13:02;;;;;;;;;16.75;14.50;;;;;;;;5035629;28;51468;-57
2023/02/12 00:15:46;;;;;;;;;27.50;22.50;;;;;;;;5036990;28;51096;-57
2023/02/12 00:18:30;;;;;;;;;26.25;23.00;;;;;;;;5037330;28;51206;-57
2023/02/12 00:21:16;;;;;;;;;22.75;20.75;;;;;;;;5037667;28;51068;-57
2023/02/12 00:24:00;;;;;;;;;25.00;20.25;;;;;;;;5037060;28;51262;-57
2023/02/12 00:26:46;;;;;;;;;23.50;18.25;;;;;;;;5034583;28;51476;-57
2023/02/12 00:29:31;;;;;;;;;30.50;23.50;;;;;;;;5037245;28;51648;-58
2023/02/12 00:32:18;;;;;;;;;22.50;20.25;;;;;;;;5035590;28;51106;-57
2023/02/12 00:35:02;;;;;;;;;22.75;19.50;;;;;;;;5037203;28;51225;-57
2023/02/12 00:37:47;;;;;;;;;23.25;19.50;;;;;;;;5036740;28;51146;-59
2023/02/12 00:40:31;;;;;;;;;22.00;21.50;;;;;;;;5037478;28;51458;-58
2023/02/12 00:43:15;;;;;;;;;20.00;18.25;;;;;;;;5037096;28;51228;-58
2023/02/12 00:46:00;;;;;;;;;23.50;19.75;;;;;;;;5036949;28;51151;-58
2023/02/12 00:48:45;;;;;;;;;24.50;18.00;;;;;;;;5036661;28;51550;-58
2023/02/12 00:51:29;;;;;;;;;22.00;19.50;;;;;;;;5037102;28;51206;-58
2023/02/12 00:54:14;;;;;;;;;22.75;20.00;;;;;;;;5021171;28;51127;-58
2023/02/12 00:56:58;;;;;;;;;25.75;21.25;;;;;;;;5035551;28;51151;-58
2023/02/12 00:59:42;;;;;;;;;24.75;20.50;;;;;;;;5037279;28;51107;-58
2023/02/12 01:02:27;;;;;;;;;27.50;20.75;;;;;;;;5036289;28;51127;-58
2023/02/12 01:05:11;;;;;;;;;23.00;20.50;;;;;;;;5037088;28;51489;-58
2023/02/12 01:07:56;;;;;;;;;25.50;20.25;;;;;;;;5036277;28;51163;-58
2023/02/12 01:10:40;;;;;;;;;19.50;18.50;;;;;;;;5036142;28;51108;-58
2023/02/12 01:13:25;;;;;;;;;21.50;18.75;;;;;;;;5036627;28;51567;-58
2023/02/12 01:16:14;;;;;;;;;23.00;20.00;;;;;;;;5036909;28;51559;-58
2023/02/12 01:18:58;;;;;;;;;21.75;19.25;;;;;;;;5035319;28;51199;-58
2023/02/12 01:21:43;;;;;;;;;25.25;20.75;;;;;;;;5036628;28;51103;-58
2023/02/12 01:24:27;;;;;;;;;24.00;21.25;;;;;;;;5037357;28;51096;-58
2023/02/12 01:27:12;;;;;;;;;24.75;20.50;;;;;;;;5034321;28;52048;-58
2023/02/12 01:29:56;;;;;;;;;32.25;22.25;;;;;;;;5036238;28;51156;-58
2023/02/12 01:32:40;;;;;;;;;24.75;22.75;;;;;;;;5039505;28;51162;-58
2023/02/12 01:35:25;;;;;;;;;23.25;22.25;;;;;;;;5039192;28;51127;-58
2023/02/12 01:38:09;;;;;;;;;28.25;19.75;;;;;;;;5039892;28;51511;-58
2023/02/12 01:41:00;;;;;;;;;24.75;21.00;;;;;;;;5040573;28;51136;-58
2023/02/12 01:43:45;;;;;;;;;23.50;22.00;;;;;;;;5040536;28;51178;-58
2023/02/12 01:46:29;;;;;;;;;26.50;20.50;;;;;;;;5040156;28;51095;-58
2023/02/12 01:49:21;;;;;;;;;27.00;22.25;;;;;;;;5040018;28;51150;-58
2023/02/12 01:52:09;;;;;;;;;27.75;22.25;;;;;;;;5039184;28;51113;-58
2023/02/12 01:54:57;;;;;;;;;20.50;20.00;;;;;;;;5040404;28;51414;-59
2023/02/12 01:57:42;;;;;;;;;21.75;20.75;;;;;;;;5040024;28;51123;-58
2023/02/12 02:00:26;;;;;;;;;27.00;20.75;;;;;;;;5054714;28;51166;-57
2023/02/12 02:03:11;;;;;;;;;18.75;18.75;;;;;;;;5060386;28;51765;-58
2023/02/12 02:06:00;;;;;;;;;22.25;20.75;;;;;;;;5059928;28;51125;-58
2023/02/12 02:08:45;;;;;;;;;21.25;19.25;;;;;;;;5059679;28;51547;-58
2023/02/12 02:14:32;;;;;;;;;25.25;21.75;;;;;;;;5060148;28;51098;-58
2023/02/12 02:17:20;;;;;;;;;26.00;21.25;;;;;;;;5060202;28;51165;-58
2023/02/12 02:20:22;;;;;;;;;22.00;19.00;;;;;;;;5058453;28;51199;-58
2023/02/12 02:23:16;;;;;;;;;22.50;21.00;;;;;;;;5059683;28;51193;-58
2023/02/12 02:26:03;;;;;;;;;24.75;23.25;;;;;;;;5060129;28;51127;-58
2023/02/12 02:28:56;;;;;;;;;21.50;19.75;;;;;;;;5057585;28;51172;-58
2023/02/12 02:31:59;;;;;;;;;22.50;21.00;;;;;;;;5059070;28;51063;-58
2023/02/12 02:34:43;;;;;;;;;22.25;18.00;;;;;;;;5059248;28;51576;-58
2023/02/12 02:37:36;;;;;;;;;23.25;19.50;;;;;;;;5058816;28;51062;-58
2023/02/12 02:40:22;;;;;;;;;25.25;20.50;;;;;;;;5058877;28;51075;-58
2023/02/12 02:43:10;;;;;;;;;31.25;22.25;;;;;;;;5058572;28;51220;-58
2023/02/12 02:46:20;;;;;;;;;27.75;22.50;;;;;;;;5057686;28;51441;-58
2023/02/12 02:49:07;;;;;;;;;28.50;23.25;;;;;;;;5041101;28;51136;-57
2023/02/12 02:51:59;;;;;;;;;26.00;21.25;;;;;;;;5059243;28;51126;-58
2023/02/12 02:54:55;;;;;;;;;22.50;20.50;;;;;;;;5057154;28;51388;-58
2023/02/12 02:57:47;;;;;;;;;23.25;19.75;;;;;;;;5059568;28;51139;-58
2023/02/12 03:00:37;;;;;;;;;21.50;20.50;;;;;;;;5042412;28;51717;-58
2023/02/12 03:03:27;;;;;;;;;24.50;21.25;;;;;;;;5038355;28;51161;-58
2023/02/12 03:06:24;;;;;;;;;24.50;20.25;;;;;;;;5039129;28;51109;-58
2023/02/12 03:09:14;;;;;;;;;26.25;21.25;;;;;;;;5039087;28;51137;-58
2023/02/12 03:12:02;;;;;;;;;25.75;22.50;;;;;;;;5037282;28;51025;-58
2023/02/12 03:14:53;;;;;;;;;23.25;20.50;;;;;;;;5038055;28;51283;-58
2023/02/12 03:17:39;;;;;;;;;27.25;21.50;;;;;;;;5038123;28;51099;-59
2023/02/12 03:20:26;;;;;;;;;27.00;20.75;;;;;;;;5038695;28;51528;-58
2023/02/12 03:23:13;;;;;;;;;28.00;22.50;;;;;;;;5036090;28;51738;-58
2023/02/12 03:26:02;;;;;;;;;26.00;23.50;;;;;;;;5037817;28;51474;-57
2023/02/12 03:28:47;;;;;;;;;29.50;25.75;;;;;;;;5020606;28;51132;-59
2023/02/12 03:31:40;;;;;;;;;21.75;18.00;;;;;;;;5036641;28;51193;-58
2023/02/12 03:34:30;;;;;;;;;29.00;24.50;;;;;;;;5037511;28;51233;-58
2023/02/12 03:37:21;;;;;;;;;27.00;26.75;;;;;;;;5038701;28;51336;-58
2023/02/12 03:40:11;;;;;;;;;27.75;24.75;;;;;;;;5037186;28;52964;-58
2023/02/12 03:43:07;;;;;;;;;27.50;26.50;;;;;;;;5036516;28;51076;-58
2023/02/12 03:45:58;;;;;;;;;31.25;24.75;;;;;;;;5037175;28;52121;-58
2023/02/12 03:48:53;;;;;;;;;29.00;27.00;;;;;;;;5036711;28;51120;-58
2023/02/12 03:51:39;;;;;;;;;25.75;24.00;;;;;;;;5037916;28;51175;-58
2023/02/12 03:54:23;;;;;;;;;31.75;26.25;;;;;;;;5035617;28;51188;-58
2023/02/12 03:57:10;;;;;;;;;25.50;24.75;;;;;;;;5038197;28;51178;-58
2023/02/12 03:59:55;;;;;;;;;26.00;25.50;;;;;;;;5037447;28;51146;-58
2023/02/12 04:02:40;;;;;;;;;30.75;27.50;;;;;;;;5038128;28;51099;-58
2023/02/12 04:05:26;;;;;;;;;35.00;26.75;;;;;;;;5036926;28;51179;-58
2023/02/12 04:08:11;;;;;;;;;28.50;25.50;;;;;;;;5036769;28;51033;-58
2023/02/12 04:11:05;;;;;;;;;34.25;28.25;;;;;;;;5037518;28;51543;-57
2023/02/12 04:14:14;;;;;;;;;29.25;24.75;;;;;;;;5037772;28;51122;-58
2023/02/12 04:17:08;;;;;;;;;31.75;27.75;;;;;;;;5004119;28;51530;-58
2023/02/12 04:19:52;;;;;;;;;37.75;30.00;;;;;;;;5037124;28;51141;-58
2023/02/12 04:22:36;;;;;;;;;35.00;26.50;;;;;;;;5037908;28;51113;-58
2023/02/12 04:25:21;;;;;;;;;32.50;29.50;;;;;;;;5037553;28;51441;-55
2023/02/12 04:28:05;;;;;;;;;33.25;29.75;;;;;;;;5036024;28;51099;-58
2023/02/12 04:31:15;;;;;;;;;31.75;28.25;;;;;;;;5036697;28;51093;-58
2023/02/12 04:34:08;;;;;;;;;37.50;31.00;;;;;;;;5015012;28;51201;-58
2023/02/12 04:37:18;;;;;;;;;30.25;28.75;;;;;;;;5035447;28;51094;-58
2023/02/12 04:40:05;;;;;;;;;33.00;27.75;;;;;;;;5036864;28;51173;-58
2023/02/12 04:42:50;;;;;;;;;35.75;30.50;;;;;;;;5036893;28;51412;-58
2023/02/12 04:45:35;;;;;;;;;37.00;28.50;;;;;;;;5036958;28;51125;-59
2023/02/12 04:48:21;;;;;;;;;33.75;30.25;;;;;;;;5035474;28;51960;-58
2023/02/12 04:51:04;;;;;;;;;36.00;30.00;;;;;;;;5036537;28;51331;-58
2023/02/12 04:53:49;;;;;;;;;41.75;30.50;;;;;;;;5037115;28;51711;-58
2023/02/12 04:56:33;;;;;;;;;36.00;28.00;;;;;;;;5033625;28;52634;-58
2023/02/12 04:59:17;;;;;;;;;31.75;30.75;;;;;;;;5041183;28;51061;-58
2023/02/12 05:02:02;;;;;;;;;30.25;28.25;;;;;;;;5056852;28;51441;-58
2023/02/12 05:04:48;;;;;;;;;41.25;30.00;;;;;;;;5055372;28;51193;-58
2023/02/12 05:07:32;;;;;;;;;35.00;30.25;;;;;;;;5061370;28;51432;-58
2023/02/12 05:10:16;;;;;;;;;30.00;26.50;;;;;;;;5060450;28;51129;-58
2023/02/12 05:13:01;;;;;;;;;35.00;30.75;;;;;;;;5060833;28;51433;-58
2023/02/12 05:15:45;;;;;;;;;30.00;29.00;;;;;;;;5061190;28;51167;-58
2023/02/12 05:18:30;;;;;;;;;44.00;32.50;;;;;;;;5060849;28;51154;-58
2023/02/12 05:21:14;;;;;;;;;38.00;32.75;;;;;;;;5061597;28;51161;-58
2023/02/12 05:24:00;;;;;;;;;36.50;31.75;;;;;;;;5059816;28;51701;-58
2023/02/12 05:26:44;;;;;;;;;40.50;34.00;;;;;;;;5060660;28;51362;-58
2023/02/12 05:29:28;;;;;;;;;34.50;31.75;;;;;;;;5060330;28;51131;-58
2023/02/12 05:32:13;;;;;;;;;43.50;34.50;;;;;;;;5060875;28;51371;-58
2023/02/12 05:34:57;;;;;;;;;43.25;33.75;;;;;;;;5060680;28;51215;-58
2023/02/12 05:37:41;;;;;;;;;39.75;32.25;;;;;;;;5060841;28;51131;-58
2023/02/12 05:40:26;;;;;;;;;44.50;35.00;;;;;;;;5059763;28;51099;-58
2023/02/12 05:43:10;;;;;;;;;49.00;37.25;;;;;;;;5060686;28;51980;-58
2023/02/12 05:45:57;;;;;;;;;41.00;34.75;;;;;;;;5059848;28;51050;-58
2023/02/12 05:48:41;;;;;;;;;46.00;36.25;;;;;;;;5060068;28;51177;-59
2023/02/12 05:51:26;;;;;;;;;46.75;39.00;;;;;;;;5059302;28;51145;-58
2023/02/12 05:54:10;;;;;;;;;47.50;37.75;;;;;;;;5059796;28;51219;-58
2023/02/12 05:56:55;;;;;;;;;44.25;37.75;;;;;;;;5059738;28;51646;-58
2023/02/12 05:59:39;;;;;;;;;44.75;37.00;;;;;;;;5052446;28;51157;-58
2023/02/12 06:02:24;;;;;;;;;48.25;36.75;;;;;;;;5038147;28;51307;-59
2023/02/12 06:05:08;;;;;;;;;48.50;38.00;;;;;;;;5040069;28;51240;-58
2023/02/12 06:07:53;;;;;;;;;43.75;33.50;;;;;;;;5039626;28;51683;-57
2023/02/12 06:10:37;;;;;;;;;49.25;38.50;;;;;;;;5039992;28;51236;-58
2023/02/12 06:13:21;;;;;;;;;54.75;41.50;;;;;;;;5039869;28;51165;-58
2023/02/12 06:16:06;;;;;;;;;52.75;39.75;;;;;;;;5039822;28;51141;-58
2023/02/12 06:18:51;;;;;;;;;57.25;42.75;;;;;;;;5039292;28;52168;-59
2023/02/12 06:32:16;;;;;;;;;46.50;34.50;;;;;;;;4325774;32;51146;-45
2023/02/12 06:35:00;;;;;;;;;51.00;37.25;;;;;;;;5077040;28;51014;-42
2023/02/12 06:37:44;;;;;;;;;47.00;38.50;;;;;;;;5076823;28;51458;-48
2023/02/12 06:40:29;;;;;;;;;52.50;41.00;;;;;;;;5076845;28;51024;-46
2023/02/12 06:43:14;;;;;;;;;58.75;45.50;;;;;;;;5076702;28;51611;-44
2023/02/12 06:46:02;;;;;;;;;60.75;45.75;;;;;;;;5076646;28;51105;-44
2023/02/12 06:48:46;;;;;;;;;55.50;44.25;;;;;;;;5077036;28;51113;-42
2023/02/12 06:51:31;;;;;;;;;56.75;43.50;;;;;;;;5076639;28;51358;-44
2023/02/12 06:54:16;;;;;;;;;49.25;40.25;;;;;;;;5075507;28;51277;-45
2023/02/12 06:57:00;;;;;;;;;53.75;41.75;;;;;;;;5076328;28;51180;-43
2023/02/12 06:59:45;;;;;;;;;50.50;40.00;;;;;;;;5073848;28;51339;-45
2023/02/12 07:02:29;;;;;;;;;50.75;40.00;;;;;;;;5059800;28;51037;-43
2023/02/12 07:05:13;;;;;;;;;47.75;36.50;;;;;;;;5076276;28;51164;-46
2023/02/12 07:07:58;;;;;;;;;48.75;39.50;;;;;;;;5076438;28;51144;-44
2023/02/12 07:10:47;;;;;;;;;55.00;43.50;;;;;;;;5076254;28;51076;-44
2023/02/12 07:13:33;;;;;;;;;56.00;43.75;;;;;;;;5076629;28;51115;-43
2023/02/12 07:16:17;;;;;;;;;68.25;53.25;;;;;;;;5075748;28;51120;-43
2023/02/12 07:19:02;;;;;;;;;63.75;49.50;;;;;;;;5076218;28;51516;-45
2023/02/12 07:21:46;;;;;;;;;67.75;51.75;;;;;;;;5075908;28;51052;-46
2023/02/12 07:24:31;;;;;;;;;77.25;62.25;;;;;;;;5076384;28;51156;-47
2023/02/12 07:27:15;;;;;;;;;62.75;49.75;;;;;;;;5075712;28;51529;-43
2023/02/12 07:30:00;;;;;;;;;60.00;47.00;;;;;;;;5075739;28;51303;-45
2023/02/12 07:32:44;;;;;;;;;56.75;45.50;;;;;;;;5064636;28;50991;-44
2023/02/12 07:35:28;;;;;;;;;65.50;50.75;;;;;;;;5062101;28;51084;-46
2023/02/12 07:38:13;;;;;;;;;59.00;44.75;;;;;;;;5062524;28;51028;-44
2023/02/12 07:41:15;;;;;;;;;51.50;42.00;;;;;;;;5062114;28;51166;-45
2023/02/12 07:44:06;;;;;;;;;55.00;43.75;;;;;;;;5047035;28;51541;-45
2023/02/12 07:46:50;;;;;;;;;52.75;42.00;;;;;;;;5062088;28;51070;-45
2023/02/12 07:49:35;;;;;;;;;53.00;42.25;;;;;;;;5062530;28;51182;-47
2023/02/12 07:52:19;;;;;;;;;58.00;42.50;;;;;;;;5060200;28;51547;-43
2023/02/12 07:55:03;;;;;;;;;51.50;41.25;;;;;;;;5062175;28;51165;-44
2023/02/12 07:57:48;;;;;;;;;47.00;38.00;;;;;;;;5061975;28;51072;-43
2023/02/12 08:00:32;;;;;;;;;47.50;39.50;;;;;;;;5061697;28;51020;-49
2023/02/12 08:03:17;;;;;;;;;42.25;36.50;;;;;;;;5061912;28;51160;-44
2023/02/12 08:06:05;;;;;;;;;51.25;36.50;;;;;;;;5061610;28;51498;-47
2023/02/12 08:08:51;;;;;;;;;49.50;40.25;;;;;;;;5060507;28;51894;-42
2023/02/12 08:11:35;;;;;;;;;65.00;48.00;;;;;;;;5050926;28;51075;-44
2023/02/12 08:14:20;;;;;;;;;65.50;50.25;;;;;;;;5059833;28;51221;-45
2023/02/12 08:17:05;;;;;;;;;60.50;46.25;;;;;;;;5061452;28;51157;-45
2023/02/12 08:19:49;;;;;;;;;55.75;43.00;;;;;;;;5061498;28;51202;-43
2023/02/12 08:22:33;;;;;;;;;59.50;44.75;;;;;;;;5061502;28;51122;-46
2023/02/12 08:25:18;;;;;;;;;52.00;43.50;;;;;;;;5058309;28;51042;-46
2023/02/12 08:28:02;;;;;;;;;58.75;43.50;;;;;;;;5061623;28;51192;-43
2023/02/12 08:30:46;;;;;;;;;57.00;45.25;;;;;;;;5057734;28;51488;-45
2023/02/12 08:33:31;;;;;;;;;55.50;43.00;;;;;;;;5061253;28;51701;-46
2023/02/12 08:36:16;;;;;;;;;58.25;44.75;;;;;;;;5061011;28;51236;-43
2023/02/12 08:39:01;;;;;;;;;47.75;39.50;;;;;;;;5046161;28;51246;-44
2023/02/12 08:41:45;;;;;;;;;51.25;38.50;;;;;;;;5059929;28;51534;-47
2023/02/12 08:44:30;;;;;;;;;50.25;40.00;;;;;;;;5060029;28;51060;-45
2023/02/12 08:47:14;;;;;;;;;52.25;40.50;;;;;;;;5061182;28;51094;-46
2023/02/12 08:49:58;;;;;;;;;48.75;39.25;;;;;;;;5060855;28;51225;-45
2023/02/12 08:52:43;;;;;;;;;51.25;41.00;;;;;;;;5061373;28;51132;-45
2023/02/12 08:55:27;;;;;;;;;43.75;34.75;;;;;;;;5060513;28;51572;-44
2023/02/12 08:58:12;;;;;;;;;46.50;35.25;;;;;;;;5060857;28;51600;-48
2023/02/12 09:00:56;;;;;;;;;46.00;37.50;;;;;;;;5060291;28;51115;-44
2023/02/12 09:03:42;;;;;;;;;28.25;20.75;;;;;;;;5060812;28;51098;-44
2023/02/12 09:06:26;;;;;;;;;43.00;34.50;;;;;;;;5057456;28;51070;-45
2023/02/12 09:09:11;;;;;;;;;44.75;34.00;;;;;;;;5060442;28;51167;-46
2023/02/12 09:11:55;;;;;;;;;42.75;34.00;;;;;;;;5060457;28;51571;-45
2023/02/12 09:14:39;;;;;;;;;42.00;34.00;;;;;;;;5050802;28;51184;-48
2023/02/12 09:17:26;;;;;;;;;36.50;31.00;;;;;;;;5056762;28;51151;-45
2023/02/12 09:20:10;;;;;;;;;33.50;27.00;;;;;;;;5057631;28;51355;-45
2023/02/12 09:22:55;;;;;;;;;36.25;28.00;;;;;;;;5056770;28;51149;-44
2023/02/12 09:25:43;;;;;;;;;37.00;30.00;;;;;;;;5057008;28;51025;-45
2023/02/12 09:28:27;;;;;;;;;36.00;30.00;;;;;;;;5057957;28;51036;-45
2023/02/12 09:31:13;;;;;;;;;29.00;28.00;;;;;;;;5045375;28;51130;-47
2023/02/12 09:33:59;;;;;;;;;33.75;29.75;;;;;;;;5037624;28;51140;-45
2023/02/12 09:36:43;;;;;;;;;36.50;28.50;;;;;;;;5036686;28;51188;-45
2023/02/12 09:39:29;;;;;;;;;28.00;25.00;;;;;;;;5037267;28;51161;-46
2023/02/12 09:42:25;;;;;;;;;21.00;21.00;;;;;;;;5037265;28;51361;-48
2023/02/12 09:45:21;;;;;;;;;28.50;26.25;;;;;;;;5037229;28;51115;-44
2023/02/12 09:48:24;;;;;;;;;29.50;27.75;;;;;;;;5036240;28;51115;-45
2023/02/12 09:51:09;;;;;;;;;30.25;28.75;;;;;;;;5037114;28;51139;-44
2023/02/12 09:53:59;;;;;;;;;32.00;29.00;;;;;;;;5037576;28;51278;-43
2023/02/12 09:56:47;;;;;;;;;39.25;33.75;;;;;;;;5036281;28;51103;-47
2023/02/12 09:59:37;;;;;;;;;33.25;28.75;;;;;;;;5037371;28;51162;-45
2023/02/12 10:02:22;;;;;;;;;39.25;31.75;;;;;;;;5036331;28;51567;-45
2023/02/12 10:05:15;;;;;;;;;33.75;30.50;;;;;;;;5037123;28;51131;-48
2023/02/12 10:07:59;;;;;;;;;38.50;33.25;;;;;;;;5035167;28;52549;-45
2023/02/12 10:10:49;;;;;;;;;47.50;34.75;;;;;;;;5036821;28;51120;-45
2023/02/12 10:13:48;;;;;;;;;43.00;35.50;;;;;;;;5036305;28;51016;-44
2023/02/12 10:16:32;;;;;;;;;38.25;31.50;;;;;;;;5036476;28;51211;-48
2023/02/12 10:19:31;;;;;;;;;34.75;29.00;;;;;;;;5036375;28;51097;-44
2023/02/12 10:22:21;;;;;;;;;32.00;26.25;;;;;;;;5036690;28;51083;-43
2023/02/12 10:25:09;;;;;;;;;35.50;31.00;;;;;;;;5035305;28;51505;-44
2023/02/12 10:27:54;;;;;;;;;39.75;30.00;;;;;;;;5037172;28;51425;-47
2023/02/12 10:30:45;;;;;;;;;32.25;29.00;;;;;;;;5036516;28;51052;-44
2023/02/12 10:33:40;;;;;;;;;27.25;25.00;;;;;;;;5036675;28;51134;-49
2023/02/12 10:36:44;;;;;;;;;28.00;26.00;;;;;;;;5034721;28;51469;-46
2023/02/12 10:39:34;;;;;;;;;31.50;27.50;;;;;;;;5036322;28;51269;-46
2023/02/12 10:42:44;;;;;;;;;34.00;29.00;;;;;;;;5036014;28;51143;-45
2023/02/12 10:45:38;;;;;;;;;27.25;24.75;;;;;;;;5036956;28;51171;-44
2023/02/12 10:48:36;;;;;;;;;28.00;22.50;;;;;;;;5035234;28;51072;-45
2023/02/12 10:51:26;;;;;;;;;25.75;21.75;;;;;;;;5035374;28;51199;-46
2023/02/12 10:54:29;;;;;;;;;22.25;19.75;;;;;;;;5036953;28;51784;-44
2023/02/12 10:57:16;;;;;;;;;23.50;21.00;;;;;;;;5036493;28;51187;-44
2023/02/12 11:00:18;;;;;;;;;29.75;26.75;;;;;;;;5036142;28;51093;-43
2023/02/12 11:03:02;;;;;;;;;22.25;20.75;;;;;;;;5035739;28;51481;-45
2023/02/12 11:05:47;;;;;;;;;26.00;22.25;;;;;;;;5036624;28;51607;-47
2023/02/12 11:08:37;;;;;;;;;24.50;22.75;;;;;;;;5040016;28;51128;-45
2023/02/12 11:11:21;;;;;;;;;33.50;25.25;;;;;;;;5039363;28;51155;-44
2023/02/12 11:14:15;;;;;;;;;23.25;21.75;;;;;;;;5040305;28;51579;-45
2023/02/12 11:17:01;;;;;;;;;25.75;22.50;;;;;;;;5039192;28;51095;-48
2023/02/12 11:20:01;;;;;;;;;24.25;20.50;;;;;;;;5040266;28;51095;-46
2023/02/12 11:23:05;;;;;;;;;27.00;22.25;;;;;;;;5039450;28;51234;-44
2023/02/12 11:25:56;;;;;;;;;23.25;19.50;;;;;;;;5038865;28;51095;-44
2023/02/12 11:28:51;;;;;;;;;24.00;18.00;;;;;;;;5039281;28;51104;-46
2023/02/12 11:31:36;;;;;;;;;28.25;24.25;;;;;;;;5039007;28;51557;-48
2023/02/12 11:34:20;;;;;;;;;27.75;23.00;;;;;;;;5040209;28;51065;-48
2023/02/12 11:37:13;;;;;;;;;29.25;25.75;;;;;;;;5038008;28;51189;-44
2023/02/12 11:39:58;;;;;;;;;27.00;26.00;;;;;;;;5039990;28;52059;-45
2023/02/12 11:42:46;;;;;;;;;30.50;27.00;;;;;;;;5038877;28;51492;-48
2023/02/12 11:45:36;;;;;;;;;31.00;24.75;;;;;;;;5039569;28;51493;-45
2023/02/12 11:48:26;;;;;;;;;25.00;21.00;;;;;;;;5036124;28;51346;-47
2023/02/12 11:51:17;;;;;;;;;26.00;22.25;;;;;;;;5039785;28;51190;-46
2023/02/12 11:54:02;;;;;;;;;24.25;22.75;;;;;;;;5039042;28;51190;-43
2023/02/12 11:56:47;;;;;;;;;26.25;22.00;;;;;;;;5037869;28;51446;-45
2023/02/12 11:59:34;;;;;;;;;22.50;18.75;;;;;;;;5039088;28;51161;-43
2023/02/12 12:02:32;;;;;;;;;27.75;21.50;;;;;;;;5039748;28;51055;-46
2023/02/12 12:05:21;;;;;;;;;25.75;22.75;;;;;;;;5036921;28;51619;-46
2023/02/12 12:08:20;;;;;;;;;21.00;20.25;;;;;;;;5038677;28;51158;-47
2023/02/12 12:11:11;;;;;;;;;22.00;18.50;;;;;;;;5009921;28;51416;-47
2023/02/12 12:14:14;;;;;;;;;24.00;23.00;;;;;;;;5036987;28;51156;-45
2023/02/12 12:20:10;;;;;;;;;22.50;19.00;;;;;;;;5038839;28;51388;-43
2023/02/12 12:23:29;;;;;;;;;23.25;21.00;;;;;;;;5021867;28;51213;-46
2023/02/12 12:26:14;;;;;;;;;19.25;18.50;;;;;;;;4972973;28;51291;-45
2023/02/12 12:28:58;;;;;;;;;23.25;21.00;;;;;;;;5038938;28;51178;-48
2023/02/12 12:31:48;;;;;;;;;23.50;22.00;;;;;;;;5041868;28;51417;-43
2023/02/12 12:34:33;;;;;;;;;19.00;17.75;;;;;;;;5045401;28;51250;-47
2023/02/12 12:37:25;;;;;;;;;26.00;19.75;;;;;;;;5043960;28;51183;-45
2023/02/12 12:40:18;;;;;;;;;25.25;20.25;;;;;;;;5036812;28;51553;-45
2023/02/12 12:43:09;;;;;;;;;28.25;23.50;;;;;;;;5037136;28;51116;-49
2023/02/12 12:46:12;;;;;;;;;16.25;14.00;;;;;;;;5039556;28;51198;-45
2023/02/12 12:49:15;;;;;;;;;24.50;21.25;;;;;;;;5042775;28;51522;-44
2023/02/12 12:52:05;;;;;;;;;24.25;20.00;;;;;;;;5045966;28;51071;-50
2023/02/12 12:55:05;;;;;;;;;23.00;18.00;;;;;;;;5045349;28;51114;-45
2023/02/12 12:57:52;;;;;;;;;23.50;20.50;;;;;;;;5037727;28;51104;-48
2023/02/12 13:00:51;;;;;;;;;22.00;19.50;;;;;;;;5037722;28;51265;-44
2023/02/12 13:03:48;;;;;;;;;20.50;18.75;;;;;;;;5039334;28;51492;-45
2023/02/12 13:06:48;;;;;;;;;18.25;16.75;;;;;;;;5033573;28;51053;-44
2023/02/12 13:09:35;;;;;;;;;26.25;21.00;;;;;;;;5043982;28;51094;-46
2023/02/12 13:12:34;;;;;;;;;17.75;17.50;;;;;;;;5039195;28;51336;-47
2023/02/12 13:15:31;;;;;;;;;21.75;20.25;;;;;;;;5038539;28;51222;-47
2023/02/12 13:18:27;;;;;;;;;21.50;18.25;;;;;;;;5036467;28;51134;-47
2023/02/12 13:21:27;;;;;;;;;19.25;19.25;;;;;;;;5039339;28;51212;-52
2023/02/12 13:24:24;;;;;;;;;22.75;18.25;;;;;;;;5035520;28;52686;-45
2023/02/12 13:27:35;;;;;;;;;27.00;19.25;;;;;;;;5019313;28;51475;-47
2023/02/12 13:30:22;;;;;;;;;20.25;15.50;;;;;;;;5037156;28;51111;-50
2023/02/12 13:33:14;;;;;;;;;24.75;18.00;;;;;;;;5041357;28;51131;-50
2023/02/12 13:35:59;;;;;;;;;24.75;20.50;;;;;;;;5037305;28;51037;-49
2023/02/12 13:38:51;;;;;;;;;21.00;20.75;;;;;;;;5037164;28;51117;-49
2023/02/12 13:41:35;;;;;;;;;25.75;22.50;;;;;;;;5041928;28;51574;-54
2023/02/12 13:44:30;;;;;;;;;15.75;11.25;;;;;;;;5040268;28;51153;-53
2023/02/12 13:47:22;;;;;;;;;23.25;20.00;;;;;;;;5038800;28;51226;-52
2023/02/12 13:50:07;;;;;;;;;19.00;17.50;;;;;;;;5036843;28;51153;-49
2023/02/12 13:52:51;;;;;;;;;24.25;18.25;;;;;;;;5035351;28;51623;-52
2023/02/12 13:55:45;;;;;;;;;24.25;18.50;;;;;;;;5036382;28;51131;-54
2023/02/12 13:58:30;;;;;;;;;21.00;20.25;;;;;;;;5036503;28;51017;-53
2023/02/12 14:01:32;;;;;;;;;21.25;20.50;;;;;;;;5045961;28;51124;-55
2023/02/12 14:04:19;;;;;;;;;22.75;21.00;;;;;;;;5046876;28;51086;-55
2023/02/12 14:09:49;;;;;;;;;24.50;18.25;;;;;;;;4982270;28;51177;-54
2023/02/12 14:12:35;;;;;;;;;25.25;21.75;;;;;;;;4982520;28;51148;-51
2023/02/12 14:15:31;;;;;;;;;29.25;21.25;;;;;;;;4978113;28;51192;-54
2023/02/12 14:18:23;;;;;;;;;22.50;19.75;;;;;;;;4977725;28;51222;-54
2023/02/12 14:21:10;;;;;;;;;24.00;22.25;;;;;;;;4977155;28;51423;-52
2023/02/12 14:24:15;;;;;;;;;25.00;20.75;;;;;;;;4977830;28;51095;-54
2023/02/12 14:26:59;;;;;;;;;19.75;17.00;;;;;;;;4974426;28;51584;-53
2023/02/12 14:30:19;;;;;;;;;28.25;20.75;;;;;;;;4974550;28;51149;-55
2023/02/12 14:33:06;;;;;;;;;26.25;17.25;;;;;;;;4969153;28;51527;-58
2023/02/12 14:36:10;;;;;;;;;29.00;24.00;;;;;;;;4994233;28;51150;-57
2023/02/12 14:38:54;;;;;;;;;23.50;19.25;;;;;;;;4994417;28;51136;-59
2023/02/12 14:41:41;;;;;;;;;25.25;19.00;;;;;;;;4994133;28;51429;-57
2023/02/12 14:44:27;;;;;;;;;24.75;24.75;;;;;;;;4998039;28;51512;-58
2023/02/12 14:47:35;;;;;;;;;20.00;17.75;;;;;;;;5033201;28;51194;-56
2023/02/12 14:50:24;;;;;;;;;24.50;20.50;;;;;;;;5060009;28;51986;-51
2023/02/12 14:53:19;;;;;;;;;26.50;22.25;;;;;;;;5059961;28;51163;-50
2023/02/12 14:56:08;;;;;;;;;23.25;20.25;;;;;;;;5058438;28;51223;-50
2023/02/12 14:58:54;;;;;;;;;25.50;23.25;;;;;;;;5060167;28;51470;-50
2023/02/12 15:01:38;;;;;;;;;26.00;22.50;;;;;;;;5059620;28;51401;-58
2023/02/12 15:04:31;;;;;;;;;26.00;21.25;;;;;;;;5060905;28;51150;-58
2023/02/12 15:07:35;;;;;;;;;27.25;22.50;;;;;;;;5059931;28;51152;-54
2023/02/12 15:10:22;;;;;;;;;19.75;14.50;;;;;;;;5060267;28;51038;-56
2023/02/12 15:13:18;;;;;;;;;25.25;21.75;;;;;;;;5059696;28;51216;-54
2023/02/12 15:16:22;;;;;;;;;22.00;20.50;;;;;;;;5060066;28;51166;-55
2023/02/12 15:19:12;;;;;;;;;25.00;22.00;;;;;;;;5058574;28;51559;-53
2023/02/12 15:21:57;;;;;;;;;24.50;21.50;;;;;;;;5059354;28;51159;-57
2023/02/12 15:24:41;;;;;;;;;21.50;20.25;;;;;;;;5058477;28;51599;-56
2023/02/12 15:27:25;;;;;;;;;22.00;19.50;;;;;;;;5059494;28;51743;-55
2023/02/12 15:30:15;;;;;;;;;28.25;21.25;;;;;;;;5059894;28;51134;-54
2023/02/12 15:33:04;;;;;;;;;22.25;21.00;;;;;;;;5058946;28;51559;-57
2023/02/12 15:35:48;;;;;;;;;25.75;20.00;;;;;;;;5059770;28;51209;-57
2023/02/12 15:38:34;;;;;;;;;28.00;21.75;;;;;;;;5059042;28;51455;-58
2023/02/12 15:41:31;;;;;;;;;29.00;21.50;;;;;;;;5059267;28;51188;-54
2023/02/12 15:44:21;;;;;;;;;25.25;22.25;;;;;;;;5058753;28;51129;-53
2023/02/12 15:47:12;;;;;;;;;31.50;25.50;;;;;;;;5058759;28;51103;-58
2023/02/12 15:50:00;;;;;;;;;20.50;19.50;;;;;;;;5059096;28;51031;-54
2023/02/12 15:52:45;;;;;;;;;30.00;24.25;;;;;;;;5057845;28;51125;-55
2023/02/12 15:55:34;;;;;;;;;23.00;19.75;;;;;;;;5058672;28;51098;-53
2023/02/12 15:58:21;;;;;;;;;27.00;20.00;;;;;;;;5059094;28;51199;-58
2023/02/12 16:01:06;;;;;;;;;23.75;21.25;;;;;;;;5058618;28;51165;-57
2023/02/12 16:03:51;;;;;;;;;21.75;20.00;;;;;;;;5045774;28;52049;-55
2023/02/12 16:06:36;;;;;;;;;22.50;16.75;;;;;;;;5052968;28;51192;-56
2023/02/12 16:34:30;;;;;;;;;24.75;21.00;;;;;;;;4329121;32;51062;-59
2023/02/12 16:37:33;;;;;;;;;22.00;20.00;;;;;;;;5076574;27;51266;-56
2023/02/12 16:40:20;;;;;;;;;24.25;19.75;;;;;;;;5095110;27;51382;-49
2023/02/12 16:43:21;;;;;;;;;23.50;21.25;;;;;;;;5097023;27;51203;-53
2023/02/12 16:46:07;;;;;;;;;21.75;20.75;;;;;;;;5097094;27;51416;-51
2023/02/12 16:48:52;;;;;;;;;29.50;18.00;;;;;;;;5096348;27;51766;-56
2023/02/12 16:51:36;;;;;;;;;23.00;20.50;;;;;;;;5097182;27;51109;-55
2023/02/12 16:54:27;;;;;;;;;24.50;22.50;;;;;;;;5095623;27;51530;-53
2023/02/12 16:57:11;;;;;;;;;24.75;23.25;;;;;;;;5096587;27;51503;-53
2023/02/12 16:59:55;;;;;;;;;26.25;17.25;;;;;;;;5095295;27;51081;-53
2023/02/12 17:02:40;;;;;;;;;20.25;17.50;;;;;;;;5096851;27;51027;-56
2023/02/12 17:05:24;;;;;;;;;29.00;23.25;;;;;;;;5096339;27;51085;-56